Time;durP1;ratioP1;P1;durP2;ratioP2;P2;SDS_P1;SDS_P2;PMS_P1;PMS_P2;Temp;Humidity;BMP_temperature;BMP_pressure;BME280_temperature;BME280_humidity;BME280_pressure;Samples;Min_cycle;Max_cycle;Signal;HPM_P1;HPM_P2
2024/02/18 00:01:33;;;;;;;10.10;5.93;;;10.70;99.90;;;;;;4972642;28;20045;-75
2024/02/18 00:03:59;;;;;;;7.13;4.10;;;10.70;99.90;;;;;;4959632;28;20108;-75
2024/02/18 00:06:24;;;;;;;8.85;3.97;;;10.70;99.90;;;;;;4966854;28;20050;-76
2024/02/18 00:08:50;;;;;;;10.57;4.88;;;10.60;99.90;;;;;;4967180;28;20494;-75
2024/02/18 00:11:16;;;;;;;6.13;3.95;;;10.60;99.90;;;;;;4971261;28;20403;-77
2024/02/18 00:13:42;;;;;;;9.75;5.15;;;10.60;99.90;;;;;;4956992;28;20565;-76
2024/02/18 00:16:07;;;;;;;8.40;4.65;;;10.60;99.90;;;;;;4966837;28;20042;-76
2024/02/18 00:18:33;;;;;;;9.05;4.70;;;10.50;99.90;;;;;;4954539;28;20129;-76
2024/02/18 00:20:59;;;;;;;6.90;4.43;;;10.50;99.90;;;;;;4964325;28;20043;-76
2024/02/18 00:23:25;;;;;;;9.68;4.47;;;10.50;99.90;;;;;;4967140;28;20122;-76
2024/02/18 00:25:50;;;;;;;5.40;4.20;;;10.50;99.90;;;;;;4963022;28;20064;-76
2024/02/18 00:28:16;;;;;;;7.97;4.60;;;10.40;99.90;;;;;;4963831;28;20051;-77
2024/02/18 00:30:41;;;;;;;9.45;5.18;;;10.40;99.90;;;;;;4951978;28;20038;-76
2024/02/18 00:33:08;;;;;;;6.45;4.07;;;10.40;99.90;;;;;;4968932;28;20103;-77
2024/02/18 00:35:33;;;;;;;7.13;4.15;;;10.40;99.90;;;;;;4962687;28;20042;-77
2024/02/18 00:37:59;;;;;;;7.25;4.63;;;10.40;99.90;;;;;;4968409;28;20528;-76
2024/02/18 00:40:25;;;;;;;6.25;4.22;;;10.40;99.90;;;;;;4982388;28;20042;-74
2024/02/18 00:42:50;;;;;;;4.93;3.17;;;10.40;99.90;;;;;;4967037;28;20124;-76
2024/02/18 00:45:16;;;;;;;7.50;4.00;;;10.30;99.90;;;;;;4945373;28;20047;-76
2024/02/18 00:47:42;;;;;;;6.38;3.75;;;10.40;99.90;;;;;;4973459;28;20052;-76
2024/02/18 00:50:08;;;;;;;7.35;4.25;;;10.40;99.90;;;;;;4964688;28;20042;-76
2024/02/18 00:52:34;;;;;;;5.47;4.25;;;10.40;99.90;;;;;;4966146;28;20113;-76
2024/02/18 00:54:59;;;;;;;8.38;3.78;;;10.30;99.90;;;;;;4966502;28;20125;-76
2024/02/18 00:57:25;;;;;;;9.07;3.90;;;10.30;99.90;;;;;;4968188;28;20042;-77
2024/02/18 00:59:51;;;;;;;6.55;3.85;;;10.40;99.90;;;;;;4971930;28;20042;-77
2024/02/18 01:02:16;;;;;;;7.88;4.30;;;10.30;99.90;;;;;;4972887;28;20093;-77
2024/02/18 01:04:42;;;;;;;6.03;3.47;;;10.30;99.90;;;;;;4971413;28;20070;-76
2024/02/18 01:07:09;;;;;;;7.78;3.25;;;10.30;99.90;;;;;;4967898;28;20478;-76
2024/02/18 01:09:35;;;;;;;8.05;2.90;;;10.30;99.90;;;;;;4967801;28;20047;-76
2024/02/18 01:12:02;;;;;;;4.22;2.60;;;10.30;99.90;;;;;;4968345;28;20122;-76
2024/02/18 01:14:28;;;;;;;6.75;4.13;;;10.30;99.90;;;;;;4970876;28;20038;-75
2024/02/18 01:16:53;;;;;;;9.05;3.80;;;10.40;99.90;;;;;;4970177;28;20062;-77
2024/02/18 01:19:20;;;;;;;4.93;3.20;;;10.30;99.90;;;;;;4968035;28;20438;-77
2024/02/18 01:21:46;;;;;;;5.22;3.70;;;10.40;99.90;;;;;;4966855;28;20486;-76
2024/02/18 01:24:12;;;;;;;5.63;3.13;;;10.40;99.90;;;;;;4971032;28;20052;-76
2024/02/18 01:26:37;;;;;;;6.65;3.78;;;10.40;99.90;;;;;;4967034;28;20480;-76
2024/02/18 01:29:03;;;;;;;7.13;3.88;;;10.40;99.90;;;;;;4961892;28;20446;-76
2024/02/18 01:31:29;;;;;;;6.25;3.25;;;10.40;99.90;;;;;;4962408;28;20608;-76
2024/02/18 01:33:54;;;;;;;5.20;3.13;;;10.40;99.90;;;;;;4970446;28;20037;-76
2024/02/18 01:36:20;;;;;;;10.77;3.72;;;10.40;99.90;;;;;;4968908;28;20481;-76
2024/02/18 01:38:46;;;;;;;3.60;2.65;;;10.50;99.90;;;;;;4960784;28;20043;-76
2024/02/18 01:41:12;;;;;;;4.68;3.25;;;10.40;99.90;;;;;;4961383;28;20086;-76
2024/02/18 01:43:37;;;;;;;5.43;2.72;;;10.50;99.90;;;;;;4964876;28;20070;-77
2024/02/18 01:46:04;;;;;;;5.28;3.17;;;10.50;99.90;;;;;;4966572;28;20129;-77
2024/02/18 01:48:31;;;;;;;4.20;2.95;;;10.50;99.90;;;;;;4966049;28;20051;-78
2024/02/18 01:50:58;;;;;;;5.43;3.20;;;10.50;99.90;;;;;;4963875;28;20077;-76
2024/02/18 01:53:24;;;;;;;4.30;2.67;;;10.50;99.90;;;;;;4967330;28;20057;-77
2024/02/18 01:55:50;;;;;;;4.65;3.42;;;10.60;99.90;;;;;;4972529;28;20406;-76
2024/02/18 01:58:16;;;;;;;5.65;3.22;;;10.60;99.90;;;;;;4952942;28;20506;-76
2024/02/18 02:00:43;;;;;;;6.40;3.83;;;10.60;99.90;;;;;;4965845;28;20050;-77
2024/02/18 02:03:09;;;;;;;5.25;2.75;;;10.60;99.90;;;;;;4965110;28;20061;-73
2024/02/18 02:05:39;;;;;;;3.90;2.65;;;10.60;99.90;;;;;;4968441;28;20069;-76
2024/02/18 02:08:05;;;;;;;5.95;2.53;;;10.60;99.90;;;;;;4965691;28;20043;-76
2024/02/18 02:10:30;;;;;;;3.33;2.63;;;10.60;99.90;;;;;;4967737;28;20041;-77
2024/02/18 02:12:56;;;;;;;7.38;3.03;;;10.60;99.90;;;;;;4968863;28;20042;-77
2024/02/18 02:15:22;;;;;;;2.53;2.33;;;10.60;99.90;;;;;;4967260;28;20038;-77
2024/02/18 02:17:48;;;;;;;5.32;2.35;;;10.60;99.90;;;;;;4968388;28;20035;-77
2024/02/18 02:20:13;;;;;;;4.47;2.63;;;10.70;99.90;;;;;;4963201;28;20495;-77
2024/02/18 02:22:39;;;;;;;9.68;3.10;;;10.70;99.90;;;;;;4967995;28;20129;-76
2024/02/18 02:25:08;;;;;;;7.05;3.65;;;10.60;99.90;;;;;;4967200;28;20049;-77
2024/02/18 02:27:37;;;;;;;5.72;2.13;;;10.60;99.90;;;;;;4974543;28;20104;-77
2024/02/18 02:30:04;;;;;;;10.77;2.75;;;10.60;99.90;;;;;;4959724;28;20038;-77
2024/02/18 02:32:31;;;;;;;2.80;2.10;;;10.70;99.90;;;;;;4970539;28;20035;-77
2024/02/18 02:34:58;;;;;;;4.65;2.75;;;10.60;99.90;;;;;;4959619;28;20038;-77
2024/02/18 02:37:24;;;;;;;3.85;2.22;;;10.70;99.90;;;;;;4955960;28;20414;-78
2024/02/18 02:39:52;;;;;;;4.10;2.78;;;10.60;99.90;;;;;;4961147;28;20050;-77
2024/02/18 02:42:18;;;;;;;4.47;2.70;;;10.70;99.90;;;;;;4968817;28;20584;-77
2024/02/18 02:44:44;;;;;;;3.22;2.35;;;10.70;99.90;;;;;;4969014;28;20057;-77
2024/02/18 02:47:10;;;;;;;6.68;2.75;;;10.70;99.90;;;;;;4953938;28;20070;-77
2024/02/18 02:49:36;;;;;;;8.15;1.95;;;10.70;99.90;;;;;;4966644;28;20054;-78
2024/02/18 02:52:02;;;;;;;3.17;1.92;;;10.70;99.90;;;;;;4969592;28;20571;-77
2024/02/18 02:54:27;;;;;;;10.07;2.63;;;10.70;99.90;;;;;;4965985;28;20074;-77
2024/02/18 02:56:53;;;;;;;3.80;2.10;;;10.70;99.90;;;;;;4964612;28;20479;-77
2024/02/18 02:59:19;;;;;;;3.78;2.05;;;10.70;99.90;;;;;;4967832;28;20078;-77
2024/02/18 03:01:45;;;;;;;5.18;2.17;;;10.70;99.90;;;;;;4969408;28;20069;-77
2024/02/18 03:04:12;;;;;;;2.90;1.73;;;10.80;99.90;;;;;;4972335;28;20491;-77
2024/02/18 03:06:38;;;;;;;3.97;2.15;;;10.80;99.90;;;;;;4960855;28;20049;-77
2024/02/18 03:09:04;;;;;;;3.13;1.77;;;10.70;99.90;;;;;;4975097;28;20041;-75
2024/02/18 03:11:29;;;;;;;2.67;1.77;;;10.70;99.90;;;;;;4962089;28;20858;-77
2024/02/18 03:13:55;;;;;;;4.10;1.95;;;10.70;99.90;;;;;;4973820;28;20668;-77
2024/02/18 03:16:21;;;;;;;3.42;1.70;;;10.70;99.90;;;;;;4961495;28;20039;-77
2024/02/18 03:18:47;;;;;;;2.05;1.65;;;10.70;99.90;;;;;;4966930;28;20039;-77
2024/02/18 03:21:12;;;;;;;2.47;1.48;;;10.80;99.90;;;;;;4961681;28;20043;-77
2024/02/18 03:23:38;;;;;;;6.68;2.00;;;10.80;99.90;;;;;;4970911;28;20039;-78
2024/02/18 03:26:04;;;;;;;4.30;1.30;;;10.80;99.90;;;;;;4961836;28;20113;-78
2024/02/18 03:28:30;;;;;;;4.30;1.88;;;10.80;99.90;;;;;;4968183;28;20050;-77
2024/02/18 03:30:56;;;;;;;2.38;1.27;;;10.80;99.90;;;;;;4964297;28;20079;-77
2024/02/18 03:33:21;;;;;;;1.67;1.10;;;10.80;99.90;;;;;;4965234;28;20125;-78
2024/02/18 03:35:47;;;;;;;2.33;1.40;;;10.80;99.90;;;;;;4963316;28;20182;-77
2024/02/18 03:38:13;;;;;;;1.65;1.00;;;10.80;99.90;;;;;;4964302;28;20070;-79
2024/02/18 03:40:42;;;;;;;3.00;1.42;;;10.90;99.90;;;;;;4970956;28;20137;-77
2024/02/18 03:43:08;;;;;;;4.15;1.95;;;10.80;99.90;;;;;;4967410;28;20057;-77
2024/02/18 03:45:34;;;;;;;4.68;0.95;;;10.80;99.90;;;;;;4970320;28;20043;-77
2024/02/18 03:48:00;;;;;;;2.25;0.90;;;10.90;99.90;;;;;;4967309;28;20038;-78
2024/02/18 03:50:26;;;;;;;2.08;1.50;;;10.90;99.90;;;;;;4970039;28;20443;-78
2024/02/18 03:52:51;;;;;;;4.78;1.33;;;10.90;99.90;;;;;;4947864;28;20048;-78
2024/02/18 03:55:17;;;;;;;1.33;0.82;;;10.90;99.90;;;;;;4971453;28;20038;-77
2024/02/18 03:57:43;;;;;;;2.33;1.30;;;10.90;99.90;;;;;;4959832;28;20050;-77
2024/02/18 04:00:11;;;;;;;2.90;0.88;;;10.90;99.90;;;;;;4969454;28;20061;-77
2024/02/18 04:02:38;;;;;;;2.83;0.77;;;10.90;99.90;;;;;;4967941;28;20039;-76
2024/02/18 04:05:10;;;;;;;2.90;0.90;;;10.90;99.90;;;;;;4968785;28;20090;-76
2024/02/18 04:07:36;;;;;;;6.03;0.90;;;10.90;99.90;;;;;;4964589;28;20042;-76
2024/02/18 04:10:03;;;;;;;2.05;1.05;;;10.90;99.90;;;;;;4973372;28;20042;-76
2024/02/18 04:12:30;;;;;;;1.83;0.70;;;10.90;99.90;;;;;;4964806;28;20042;-76
2024/02/18 04:14:56;;;;;;;4.78;0.98;;;10.90;99.90;;;;;;4965700;28;20045;-76
2024/02/18 04:17:22;;;;;;;9.25;1.27;;;10.90;99.90;;;;;;4968659;28;20054;-76
2024/02/18 04:19:47;;;;;;;1.92;0.82;;;10.90;99.90;;;;;;4974498;28;20050;-76
2024/02/18 04:22:13;;;;;;;1.80;1.00;;;10.90;99.90;;;;;;4967165;28;20046;-77
2024/02/18 04:24:42;;;;;;;3.47;0.98;;;10.90;99.90;;;;;;4967498;28;20045;-76
2024/02/18 04:27:09;;;;;;;2.72;0.77;;;10.90;99.90;;;;;;4965699;28;20045;-75
2024/02/18 04:29:38;;;;;;;0.82;0.70;;;10.90;99.90;;;;;;4967032;28;20053;-76
2024/02/18 04:32:05;;;;;;;3.55;0.80;;;10.90;99.90;;;;;;4967933;28;20038;-75
2024/02/18 04:34:31;;;;;;;1.35;0.80;;;10.90;99.90;;;;;;4963629;28;20051;-77
2024/02/18 04:36:57;;;;;;;1.65;0.65;;;10.90;99.90;;;;;;4968028;28;20034;-76
2024/02/18 04:39:23;;;;;;;4.00;0.85;;;10.80;99.90;;;;;;4965013;28;20500;-75
2024/02/18 04:41:49;;;;;;;0.82;0.38;;;10.90;99.90;;;;;;4969872;28;20508;-77
2024/02/18 04:44:15;;;;;;;0.52;0.40;;;10.90;99.90;;;;;;4962295;28;20061;-76
2024/02/18 04:46:40;;;;;;;1.40;0.85;;;10.90;99.90;;;;;;4969264;28;20118;-77
2024/02/18 04:49:06;;;;;;;1.13;0.52;;;10.90;99.90;;;;;;4968976;28;20189;-77
2024/02/18 04:51:32;;;;;;;2.10;0.85;;;10.90;99.90;;;;;;4968279;28;20533;-76
2024/02/18 04:53:58;;;;;;;3.63;1.05;;;10.90;99.90;;;;;;4960803;28;20038;-77
2024/02/18 04:56:24;;;;;;;6.65;1.17;;;10.90;99.90;;;;;;4967444;28;20042;-77
2024/02/18 04:58:49;;;;;;;0.40;0.30;;;10.90;99.90;;;;;;4970839;28;20037;-76
2024/02/18 05:01:15;;;;;;;0.95;0.45;;;10.90;99.90;;;;;;4966947;28;20052;-77
2024/02/18 05:03:41;;;;;;;1.08;0.55;;;10.90;99.90;;;;;;4964464;28;20466;-76
2024/02/18 05:06:13;;;;;;;1.02;0.82;;;10.80;99.90;;;;;;4969605;28;20588;-76
2024/02/18 05:08:38;;;;;;;1.85;0.73;;;10.80;99.90;;;;;;4966358;28;20046;-75
2024/02/18 05:11:04;;;;;;;1.27;0.70;;;10.80;99.90;;;;;;4965614;28;20057;-74
2024/02/18 05:13:30;;;;;;;4.80;1.38;;;10.80;99.90;;;;;;4962593;28;20045;-74
2024/02/18 05:15:56;;;;;;;0.40;0.30;;;10.80;99.90;;;;;;4966482;28;20070;-74
2024/02/18 05:18:22;;;;;;;6.03;0.60;;;10.80;99.90;;;;;;4956697;28;20177;-73
2024/02/18 05:20:48;;;;;;;1.35;0.95;;;10.80;99.90;;;;;;4964331;28;20053;-73
2024/02/18 05:23:17;;;;;;;0.75;0.52;;;10.80;99.90;;;;;;4975778;28;20050;-73
2024/02/18 05:25:44;;;;;;;1.33;0.60;;;10.80;99.90;;;;;;4952656;28;20049;-73
2024/02/18 05:28:10;;;;;;;1.00;0.50;;;10.70;99.90;;;;;;4954765;28;20049;-74
2024/02/18 05:30:35;;;;;;;0.55;0.32;;;10.70;99.90;;;;;;4963388;28;20042;-74
2024/02/18 05:33:02;;;;;;;2.33;0.60;;;10.70;99.90;;;;;;4970411;28;20049;-74
2024/02/18 05:35:28;;;;;;;0.65;0.38;;;10.60;99.90;;;;;;4961815;28;20093;-73
2024/02/18 05:37:53;;;;;;;1.85;0.85;;;10.60;99.90;;;;;;4965505;28;20474;-73
2024/02/18 05:40:20;;;;;;;1.02;0.50;;;10.60;99.90;;;;;;4962853;28;20043;-74
2024/02/18 05:42:45;;;;;;;3.33;0.55;;;10.60;99.90;;;;;;4969156;28;20056;-74
2024/02/18 05:45:11;;;;;;;3.22;0.47;;;10.60;99.90;;;;;;4967503;28;20639;-74
2024/02/18 05:47:37;;;;;;;0.70;0.45;;;10.50;99.90;;;;;;4962911;28;20038;-74
2024/02/18 05:50:03;;;;;;;2.67;0.60;;;10.60;99.90;;;;;;4961807;28;20049;-74
2024/02/18 05:52:29;;;;;;;1.27;0.43;;;10.60;99.90;;;;;;4963991;28;20104;-76
2024/02/18 05:54:55;;;;;;;1.40;0.40;;;10.60;99.90;;;;;;4946927;28;20043;-77
2024/02/18 05:57:20;;;;;;;1.02;0.45;;;10.50;99.90;;;;;;4969217;28;20526;-76
2024/02/18 05:59:46;;;;;;;0.50;0.40;;;10.50;99.90;;;;;;4963638;28;20368;-75
2024/02/18 06:02:12;;;;;;;0.75;0.38;;;10.50;99.90;;;;;;4943663;28;20113;-76
2024/02/18 06:04:38;;;;;;;1.48;0.68;;;10.50;99.90;;;;;;4972772;28;20044;-77
2024/02/18 06:07:04;;;;;;;4.10;0.75;;;10.40;99.90;;;;;;4966684;28;20530;-76
2024/02/18 06:09:29;;;;;;;1.05;0.50;;;10.40;99.90;;;;;;4968235;28;20170;-76
2024/02/18 06:11:55;;;;;;;0.95;0.38;;;10.40;99.90;;;;;;4965843;28;20042;-76
2024/02/18 06:14:21;;;;;;;1.52;0.63;;;10.40;99.90;;;;;;4963882;28;20511;-77
2024/02/18 06:16:47;;;;;;;2.67;0.82;;;10.40;99.90;;;;;;4956758;28;20042;-76
2024/02/18 06:19:12;;;;;;;6.40;0.75;;;10.40;99.90;;;;;;4969880;28;20101;-76
2024/02/18 06:21:38;;;;;;;0.93;0.73;;;10.40;99.90;;;;;;4965679;28;20035;-76
2024/02/18 06:24:04;;;;;;;0.73;0.50;;;10.40;99.90;;;;;;4964631;28;20034;-76
2024/02/18 06:26:30;;;;;;;1.52;0.50;;;10.40;99.90;;;;;;4954620;28;20061;-76
2024/02/18 06:28:55;;;;;;;0.93;0.50;;;10.40;99.90;;;;;;4967880;28;20049;-77
2024/02/18 06:31:21;;;;;;;0.88;0.55;;;10.40;99.90;;;;;;4963754;28;20043;-77
2024/02/18 06:33:48;;;;;;;1.85;0.88;;;10.30;99.90;;;;;;4962087;28;20043;-77
2024/02/18 06:36:14;;;;;;;1.23;0.50;;;10.30;99.90;;;;;;4970474;28;20074;-77
2024/02/18 06:38:44;;;;;;;0.93;0.57;;;10.30;99.90;;;;;;4962442;28;20513;-76
2024/02/18 06:41:13;;;;;;;1.45;0.60;;;10.30;99.90;;;;;;4969192;28;20034;-76
2024/02/18 06:43:39;;;;;;;2.42;0.47;;;10.30;99.90;;;;;;4959405;28;20062;-77
2024/02/18 06:46:05;;;;;;;0.95;0.63;;;10.30;99.90;;;;;;4978470;28;20060;-76
2024/02/18 06:48:30;;;;;;;0.88;0.73;;;10.30;99.90;;;;;;4961958;28;20105;-74
2024/02/18 06:50:57;;;;;;;0.82;0.60;;;10.30;99.90;;;;;;4971017;28;20073;-77
2024/02/18 06:53:23;;;;;;;6.60;1.80;;;10.30;99.90;;;;;;4964305;28;20467;-77
2024/02/18 06:55:49;;;;;;;2.25;0.93;;;10.30;99.90;;;;;;4976907;28;20045;-77
2024/02/18 06:58:19;;;;;;;3.03;1.67;;;10.20;99.90;;;;;;4966249;28;20122;-76
2024/02/18 07:00:44;;;;;;;2.03;1.13;;;10.30;99.90;;;;;;4966087;28;20046;-76
2024/02/18 07:03:10;;;;;;;2.15;1.02;;;10.30;99.90;;;;;;4966505;28;20125;-76
2024/02/18 07:05:36;;;;;;;1.50;0.75;;;10.30;99.90;;;;;;4969739;28;20074;-77
2024/02/18 07:08:04;;;;;;;5.15;0.85;;;10.20;99.90;;;;;;4969631;28;20073;-77
2024/02/18 07:10:30;;;;;;;0.52;0.40;;;10.20;99.90;;;;;;4979989;28;20038;-78
2024/02/18 07:12:56;;;;;;;3.17;0.88;;;10.20;99.90;;;;;;4972392;28;20088;-77
2024/02/18 07:15:21;;;;;;;1.67;0.85;;;10.20;99.90;;;;;;4984903;28;20101;-78
2024/02/18 07:17:47;;;;;;;0.77;0.70;;;10.20;99.90;;;;;;4978234;28;20047;-77
2024/02/18 07:20:14;;;;;;;1.33;0.98;;;10.20;99.90;;;;;;4977935;28;20046;-78
2024/02/18 07:22:43;;;;;;;1.50;0.57;;;10.20;99.90;;;;;;4977388;28;20051;-77
2024/02/18 07:25:09;;;;;;;1.40;0.68;;;10.20;99.90;;;;;;4985710;28;20591;-79
2024/02/18 07:27:35;;;;;;;1.00;0.88;;;10.20;99.90;;;;;;4983458;28;20046;-78
2024/02/18 07:30:03;;;;;;;2.35;1.13;;;10.20;99.90;;;;;;4976042;28;20038;-77
2024/02/18 07:32:28;;;;;;;4.38;0.82;;;10.20;99.90;;;;;;4985763;28;20383;-79
2024/02/18 07:34:54;;;;;;;7.32;0.98;;;10.20;99.90;;;;;;4975073;28;20085;-79
2024/02/18 07:37:20;;;;;;;1.30;0.95;;;10.20;99.90;;;;;;4987153;28;20045;-78
2024/02/18 07:39:46;;;;;;;1.70;0.70;;;10.20;99.90;;;;;;4980587;28;20141;-79
2024/02/18 07:42:11;;;;;;;1.02;0.47;;;10.20;99.90;;;;;;4982235;28;20108;-79
2024/02/18 07:44:37;;;;;;;0.98;0.65;;;10.20;99.90;;;;;;4978915;28;20054;-79
2024/02/18 07:47:03;;;;;;;0.88;0.80;;;10.20;99.90;;;;;;4967996;28;20382;-78
2024/02/18 07:49:29;;;;;;;0.80;0.50;;;10.20;99.90;;;;;;4982094;28;20038;-78
2024/02/18 07:51:55;;;;;;;2.97;0.93;;;10.20;99.90;;;;;;4981252;28;20109;-78
2024/02/18 07:54:20;;;;;;;6.70;0.77;;;10.20;99.90;;;;;;4979938;28;20046;-77
2024/02/18 07:56:47;;;;;;;1.70;0.70;;;10.20;99.90;;;;;;4978772;28;20063;-78
2024/02/18 07:59:14;;;;;;;1.27;0.52;;;10.30;99.90;;;;;;4975629;28;20050;-78
2024/02/18 08:01:40;;;;;;;1.23;0.65;;;10.30;99.90;;;;;;4982889;28;20125;-75
2024/02/18 08:04:06;;;;;;;1.10;0.95;;;10.30;99.90;;;;;;4984073;28;20312;-77
2024/02/18 08:06:32;;;;;;;5.45;1.05;;;10.30;99.90;;;;;;4972670;28;20451;-77
2024/02/18 08:09:01;;;;;;;2.72;1.00;;;10.30;99.90;;;;;;4955376;28;20038;-77
2024/02/18 08:11:27;;;;;;;1.17;0.82;;;10.30;99.90;;;;;;4964759;28;20038;-77
2024/02/18 08:13:53;;;;;;;2.92;0.82;;;10.30;99.90;;;;;;4958848;28;20053;-76
2024/02/18 08:16:19;;;;;;;0.82;0.68;;;10.30;99.90;;;;;;4962136;28;20432;-78
2024/02/18 08:18:45;;;;;;;1.40;0.55;;;10.30;99.90;;;;;;4968525;28;20057;-77
2024/02/18 08:21:11;;;;;;;1.13;0.45;;;10.40;99.90;;;;;;4970612;28;20049;-78
2024/02/18 08:23:37;;;;;;;2.40;1.05;;;10.40;99.90;;;;;;4971724;28;20039;-77
2024/02/18 08:26:03;;;;;;;1.88;0.65;;;10.30;99.90;;;;;;4969778;28;20116;-75
2024/02/18 08:28:29;;;;;;;3.17;0.70;;;10.40;99.90;;;;;;4970090;28;20169;-76
2024/02/18 08:30:56;;;;;;;1.55;0.47;;;10.40;99.90;;;;;;4966552;28;20070;-77
2024/02/18 08:33:22;;;;;;;1.35;0.73;;;10.40;99.90;;;;;;4972111;28;20117;-77
2024/02/18 08:35:49;;;;;;;9.57;1.08;;;10.30;99.90;;;;;;4949471;28;20122;-78
2024/02/18 08:38:15;;;;;;;5.97;0.82;;;10.30;99.90;;;;;;4970002;28;20038;-78
2024/02/18 08:40:41;;;;;;;2.95;0.60;;;10.30;99.90;;;;;;4974439;28;20049;-77
2024/02/18 08:43:07;;;;;;;1.02;0.50;;;10.30;99.90;;;;;;4971713;28;20058;-78
2024/02/18 08:45:32;;;;;;;0.95;0.45;;;10.30;99.90;;;;;;4968129;28;20095;-78
2024/02/18 08:47:59;;;;;;;1.10;0.40;;;10.30;99.90;;;;;;4968884;28;20509;-77
2024/02/18 08:50:26;;;;;;;4.07;1.52;;;10.30;99.90;;;;;;4971256;28;20042;-76
2024/02/18 08:52:52;;;;;;;1.02;0.60;;;10.30;99.90;;;;;;4967644;28;20035;-77
2024/02/18 08:55:17;;;;;;;2.35;0.50;;;10.30;99.90;;;;;;4977123;28;20038;-78
2024/02/18 08:57:43;;;;;;;1.10;0.55;;;10.20;99.90;;;;;;4966112;28;20419;-79
2024/02/18 09:00:10;;;;;;;0.50;0.40;;;10.20;99.90;;;;;;4966275;28;20680;-78
2024/02/18 09:02:36;;;;;;;1.33;0.45;;;10.20;99.90;;;;;;4966605;28;20057;-77
2024/02/18 09:05:02;;;;;;;1.23;0.93;;;10.20;99.90;;;;;;4964848;28;20038;-78
2024/02/18 09:07:30;;;;;;;0.17;0.15;;;10.20;99.90;;;;;;4964929;28;20038;-78
2024/02/18 09:09:56;;;;;;;1.45;0.65;;;10.20;99.90;;;;;;4955269;28;20039;-78
2024/02/18 09:12:22;;;;;;;5.43;0.60;;;10.20;99.90;;;;;;4969834;28;20096;-78
2024/02/18 09:14:48;;;;;;;0.73;0.30;;;10.10;99.90;;;;;;4969545;28;20463;-76
2024/02/18 09:17:16;;;;;;;2.95;0.50;;;10.10;99.90;;;;;;4945923;28;20042;-76
2024/02/18 09:19:42;;;;;;;0.77;0.63;;;10.10;99.90;;;;;;4966254;28;20034;-76
2024/02/18 09:22:08;;;;;;;1.23;0.63;;;10.10;99.90;;;;;;4967770;28;20486;-75
2024/02/18 09:24:34;;;;;;;1.70;0.88;;;10.10;99.90;;;;;;4960427;28;20038;-75
2024/02/18 09:26:59;;;;;;;0.63;0.50;;;10.10;99.90;;;;;;4980693;28;20094;-75
2024/02/18 09:29:27;;;;;;;2.13;0.43;;;10.10;99.90;;;;;;4963991;28;20182;-74
2024/02/18 09:31:53;;;;;;;8.48;1.00;;;10.20;99.90;;;;;;4952439;28;20644;-76
2024/02/18 09:34:19;;;;;;;1.10;0.50;;;10.10;99.90;;;;;;4962119;28;20041;-74
2024/02/18 09:36:44;;;;;;;7.30;0.65;;;10.20;99.90;;;;;;4967756;28;20039;-77
2024/02/18 09:39:11;;;;;;;3.03;0.40;;;10.10;99.90;;;;;;4963000;28;20053;-78
2024/02/18 09:41:38;;;;;;;0.90;0.35;;;10.20;99.90;;;;;;4948877;28;20043;-78
2024/02/18 09:44:07;;;;;;;3.22;0.60;;;10.20;99.90;;;;;;4961524;28;20557;-76
2024/02/18 09:46:36;;;;;;;4.00;0.65;;;10.20;99.90;;;;;;4968240;28;20046;-78
2024/02/18 09:49:05;;;;;;;0.28;0.17;;;10.30;99.90;;;;;;4961675;28;20061;-78
2024/02/18 09:51:35;;;;;;;0.60;0.20;;;10.30;99.90;;;;;;4962757;28;20078;-79
2024/02/18 09:54:04;;;;;;;0.57;0.25;;;10.30;99.90;;;;;;4962502;28;20039;-81
2024/02/18 09:56:31;;;;;;;0.38;0.22;;;10.30;99.90;;;;;;4959781;28;20046;-80
2024/02/18 09:58:56;;;;;;;2.28;0.38;;;10.40;99.90;;;;;;4956024;28;20501;-81
2024/02/18 10:01:23;;;;;;;0.98;0.85;;;10.30;99.90;;;;;;4962184;28;20093;-78
2024/02/18 10:03:49;;;;;;;0.80;0.60;;;10.40;99.90;;;;;;4960746;28;20047;-79
2024/02/18 10:06:15;;;;;;;0.85;0.63;;;10.30;99.90;;;;;;4969697;28;20045;-80
2024/02/18 10:08:51;;;;;;;0.17;0.17;;;10.40;99.90;;;;;;4962230;28;20043;-79
2024/02/18 10:11:21;;;;;;;0.63;0.47;;;10.30;99.90;;;;;;4965295;28;20069;-79
2024/02/18 10:13:48;;;;;;;3.55;0.75;;;10.30;99.90;;;;;;4960817;28;20046;-75
2024/02/18 10:16:17;;;;;;;0.25;0.20;;;10.30;99.90;;;;;;4968704;28;20124;-76
2024/02/18 10:18:43;;;;;;;0.32;0.20;;;10.30;99.90;;;;;;4964591;28;20378;-77
2024/02/18 10:21:11;;;;;;;0.90;0.50;;;10.30;99.90;;;;;;4968486;28;20038;-75
2024/02/18 10:23:41;;;;;;;1.83;0.52;;;10.40;99.90;;;;;;4961343;28;20078;-75
2024/02/18 10:26:07;;;;;;;4.82;0.95;;;10.30;99.90;;;;;;4966474;28;20046;-75
2024/02/18 10:28:36;;;;;;;2.50;0.77;;;10.40;99.90;;;;;;4967812;28;20173;-75
2024/02/18 10:31:07;;;;;;;11.32;0.90;;;10.30;99.90;;;;;;4963517;28;20043;-75
2024/02/18 10:33:37;;;;;;;3.65;0.52;;;10.30;99.90;;;;;;4970222;28;20034;-76
2024/02/18 10:36:13;;;;;;;1.30;0.57;;;10.30;99.90;;;;;;4967282;28;20085;-77
2024/02/18 10:38:44;;;;;;;3.22;1.17;;;10.30;99.90;;;;;;4972537;28;20026;-76
2024/02/18 10:41:16;;;;;;;0.60;0.40;;;10.30;99.90;;;;;;4964469;28;20070;-76
2024/02/18 10:43:56;;;;;;;1.73;0.52;;;10.30;99.90;;;;;;4966787;28;20073;-76
2024/02/18 10:46:24;;;;;;;0.70;0.47;;;10.30;99.90;;;;;;4960057;28;20359;-77
2024/02/18 10:49:04;;;;;;;0.50;0.50;;;10.30;99.90;;;;;;4970903;28;20410;-75
2024/02/18 10:51:36;;;;;;;2.83;0.82;;;10.20;99.90;;;;;;4962725;28;20042;-75
2024/02/18 10:54:39;;;;;;;0.95;0.63;;;10.30;99.90;;;;;;4976621;28;20193;-75
2024/02/18 10:57:05;;;;;;;0.65;0.55;;;10.20;99.90;;;;;;4970360;28;20040;-75
2024/02/18 10:59:59;;;;;;;1.20;0.65;;;10.10;99.90;;;;;;4978256;28;20509;-75
2024/02/18 11:02:37;;;;;;;0.90;0.57;;;10.10;99.90;;;;;;4967071;28;20042;-75
2024/02/18 11:05:05;;;;;;;1.95;0.60;;;10.20;99.90;;;;;;4971175;28;20609;-76
2024/02/18 11:07:31;;;;;;;3.65;0.65;;;10.10;99.90;;;;;;4967219;28;20146;-74
2024/02/18 11:09:59;;;;;;;0.98;0.47;;;10.10;99.90;;;;;;4954959;28;20045;-75
2024/02/18 11:12:27;;;;;;;0.90;0.75;;;10.00;99.90;;;;;;4967421;28;20437;-76
2024/02/18 11:14:53;;;;;;;3.45;0.77;;;10.00;99.90;;;;;;4972678;28;20042;-75
2024/02/18 11:17:20;;;;;;;0.50;0.30;;;10.10;99.90;;;;;;4966107;28;20205;-76
2024/02/18 11:19:46;;;;;;;2.55;0.63;;;10.00;99.90;;;;;;4975457;28;20167;-77
2024/02/18 11:22:15;;;;;;;1.80;0.40;;;10.00;99.90;;;;;;4962963;28;20423;-77
2024/02/18 11:24:42;;;;;;;0.98;0.57;;;10.00;99.90;;;;;;4967919;28;20113;-77
2024/02/18 11:27:08;;;;;;;2.78;0.75;;;10.00;99.90;;;;;;4970888;28;20034;-76
2024/02/18 11:29:45;;;;;;;0.77;0.77;;;10.00;99.90;;;;;;4972181;28;20080;-77
2024/02/18 11:32:11;;;;;;;0.88;0.75;;;10.00;99.90;;;;;;4972128;28;20125;-77
2024/02/18 11:34:37;;;;;;;0.82;0.57;;;10.00;99.90;;;;;;4972543;28;20345;-76
2024/02/18 11:37:25;;;;;;;1.98;0.93;;;10.00;99.90;;;;;;4969476;28;20042;-75
2024/02/18 11:40:08;;;;;;;0.85;0.80;;;9.90;99.90;;;;;;4972126;28;20121;-74
2024/02/18 11:42:38;;;;;;;1.15;0.70;;;9.90;99.90;;;;;;4966162;28;20038;-74
2024/02/18 11:45:13;;;;;;;1.05;0.82;;;9.90;99.90;;;;;;4957179;28;20051;-76
2024/02/18 11:47:44;;;;;;;0.57;0.30;;;9.90;99.90;;;;;;4959085;28;20379;-75
2024/02/18 11:50:10;;;;;;;2.00;0.60;;;9.90;99.90;;;;;;4958299;28;20050;-75
2024/02/18 11:52:37;;;;;;;2.10;0.38;;;9.90;99.90;;;;;;4958672;28;20531;-75
2024/02/18 11:55:15;;;;;;;1.58;0.73;;;9.90;99.90;;;;;;4958583;28;20038;-75
2024/02/18 11:57:41;;;;;;;1.00;0.80;;;9.90;99.90;;;;;;4956786;28;20096;-75
2024/02/18 12:00:16;;;;;;;3.72;0.57;;;9.90;99.90;;;;;;4943313;28;20156;-77
2024/02/18 12:02:50;;;;;;;2.40;1.45;;;9.90;99.90;;;;;;4954715;28;20038;-75
2024/02/18 12:05:23;;;;;;;2.05;0.85;;;9.80;99.90;;;;;;4955345;28;20049;-76
2024/02/18 12:07:50;;;;;;;2.03;0.60;;;9.80;99.90;;;;;;4953250;28;20043;-74
2024/02/18 12:10:20;;;;;;;1.13;0.70;;;9.80;99.90;;;;;;4953496;28;20053;-75
2024/02/18 12:12:46;;;;;;;0.88;0.25;;;9.80;99.90;;;;;;4957219;28;20050;-75
2024/02/18 12:15:23;;;;;;;0.80;0.50;;;9.80;99.90;;;;;;4957518;28;20082;-76
2024/02/18 12:17:52;;;;;;;0.20;0.20;;;9.80;99.90;;;;;;4956705;28;20038;-77
2024/02/18 12:20:19;;;;;;;2.53;0.63;;;9.80;99.90;;;;;;4955429;28;20050;-76
2024/02/18 12:22:48;;;;;;;1.40;0.50;;;9.80;99.90;;;;;;4956707;28;20711;-77
2024/02/18 12:25:14;;;;;;;3.60;0.70;;;9.80;99.90;;;;;;4937845;28;20435;-76
2024/02/18 12:27:40;;;;;;;0.50;0.40;;;9.80;99.90;;;;;;4960011;28;20058;-77
2024/02/18 12:30:06;;;;;;;0.77;0.52;;;9.70;99.90;;;;;;4955824;28;20487;-75
2024/02/18 12:32:36;;;;;;;4.05;0.50;;;9.70;99.90;;;;;;4961092;28;20065;-78
2024/02/18 12:35:05;;;;;;;0.73;0.32;;;9.70;99.90;;;;;;4945095;28;20680;-76
2024/02/18 12:37:34;;;;;;;1.05;0.30;;;9.70;99.90;;;;;;4961314;28;20118;-78
2024/02/18 12:40:00;;;;;;;0.95;0.50;;;9.70;99.90;;;;;;4953765;28;20045;-75
2024/02/18 12:42:26;;;;;;;0.80;0.30;;;9.70;99.90;;;;;;4958854;28;20050;-75
2024/02/18 12:44:52;;;;;;;0.85;0.43;;;9.70;99.90;;;;;;4966019;28;20073;-75
2024/02/18 12:47:17;;;;;;;0.28;0.20;;;9.60;99.90;;;;;;4953489;28;20046;-75